createdAt,value
2023-02-28T00:00:21.569Z,57.81
2023-02-28T00:03:27.876Z,59.95
2023-02-28T00:06:32.507Z,59.94
2023-02-28T00:09:38.688Z,59.41
2023-02-28T00:12:45.196Z,60.06
2023-02-28T00:16:00.643Z,60.86
2023-02-28T00:19:06.988Z,61.07
2023-02-28T00:22:13.329Z,62.76
2023-02-28T00:25:19.285Z,64.72
2023-02-28T00:28:24.262Z,64.65
2023-02-28T00:31:30.759Z,62.89
2023-02-28T00:34:38.716Z,60.78
2023-02-28T00:37:45.474Z,60.17
2023-02-28T00:40:51.745Z,59.53
2023-02-28T00:43:57.983Z,57.12
2023-02-28T00:47:02.637Z,56.39
2023-02-28T00:50:11.475Z,56.45
2023-02-28T00:53:17.741Z,57.21
2023-02-28T00:56:23.940Z,57.82
2023-02-28T00:59:30.240Z,58.42
2023-02-28T01:02:34.844Z,59.32
2023-02-28T01:05:42.455Z,59.04
2023-02-28T01:08:48.757Z,59.72
2023-02-28T01:11:53.266Z,60.21
2023-02-28T01:14:59.541Z,59.49
2023-02-28T01:18:04.015Z,60.87
2023-02-28T01:21:11.854Z,60.51
2023-02-28T01:24:18.198Z,64.07
2023-02-28T01:27:22.720Z,66.86
2023-02-28T01:30:29.019Z,66.87
2023-02-28T01:33:33.972Z,64.96
2023-02-28T01:36:40.237Z,64.35
2023-02-28T01:39:44.830Z,64.35
2023-02-28T01:42:51.070Z,64.16
2023-02-28T01:45:56.200Z,63.09
2023-02-28T01:49:07.748Z,62.36
2023-02-28T01:52:19.116Z,61.37
2023-02-28T01:55:29.774Z,60.22
2023-02-28T01:58:36.587Z,59.66
2023-02-28T02:01:42.914Z,58.16
2023-02-28T02:04:52.489Z,58.34
2023-02-28T02:08:03.669Z,58.48
2023-02-28T02:11:13.158Z,59.90
2023-02-28T02:14:35.291Z,61.00
2023-02-28T02:17:46.898Z,63.29
2023-02-28T02:21:37.548Z,65.06
2023-02-28T02:25:05.521Z,64.07
2023-02-28T02:28:38.755Z,62.99
2023-02-28T02:32:19.934Z,62.54
2023-02-28T02:35:29.894Z,61.99
2023-02-28T02:38:41.852Z,61.70
2023-02-28T02:41:53.483Z,61.25
2023-02-28T02:45:07.285Z,60.54
2023-02-28T02:48:18.276Z,60.98
2023-02-28T02:51:27.230Z,61.17
2023-02-28T02:54:37.740Z,61.03
2023-02-28T02:57:48.716Z,61.02
2023-02-28T03:00:59.216Z,60.95
2023-02-28T03:04:10.048Z,61.18
2023-02-28T03:07:16.575Z,61.05
2023-02-28T03:10:39.091Z,60.92
2023-02-28T03:14:01.649Z,60.80
2023-02-28T03:17:24.030Z,60.55
2023-02-28T03:20:42.229Z,60.26
2023-02-28T03:23:54.961Z,60.35
2023-02-28T03:27:06.009Z,60.40
2023-02-28T03:30:18.544Z,60.20
2023-02-28T03:33:30.661Z,60.23
2023-02-28T03:36:45.074Z,60.29
2023-02-28T03:39:56.449Z,60.48
2023-02-28T03:43:05.933Z,60.52
2023-02-28T03:46:15.777Z,60.44
2023-02-28T03:49:25.224Z,60.76
2023-02-28T03:52:34.618Z,60.75
2023-02-28T03:55:45.014Z,60.59
2023-02-28T03:58:57.756Z,60.41
2023-02-28T04:02:04.400Z,60.23
2023-02-28T04:05:11.911Z,60.29
2023-02-28T04:08:18.084Z,60.29
2023-02-28T04:11:30.388Z,60.51
2023-02-28T04:14:36.899Z,60.76
2023-02-28T04:17:41.387Z,61.27
2023-02-28T04:20:48.009Z,61.39
2023-02-28T04:23:54.365Z,61.20
2023-02-28T04:26:59.828Z,61.58
2023-02-28T04:30:07.010Z,61.45
2023-02-28T04:33:13.237Z,60.90
2023-02-28T04:36:18.802Z,60.65
2023-02-28T04:39:25.966Z,60.98
2023-02-28T04:42:36.768Z,61.06
2023-02-28T04:45:43.083Z,61.27
2023-02-28T04:48:49.405Z,60.84
2023-02-28T04:51:56.781Z,60.36
2023-02-28T04:55:03.037Z,60.39
2023-02-28T04:58:09.770Z,60.42
2023-02-28T05:01:25.865Z,60.71
2023-02-28T05:04:35.348Z,60.53
2023-02-28T05:07:41.684Z,60.33
2023-02-28T05:10:48.219Z,60.08
2023-02-28T05:13:55.191Z,59.89
2023-02-28T05:17:01.382Z,59.81
2023-02-28T05:20:15.715Z,59.80
2023-02-28T05:23:24.895Z,59.94
2023-02-28T05:26:31.505Z,59.97
2023-02-28T05:29:44.376Z,59.85
2023-02-28T05:32:53.819Z,59.75
2023-02-28T05:36:00.195Z,59.77
2023-02-28T05:39:07.241Z,59.68
2023-02-28T05:42:13.491Z,59.82
2023-02-28T05:45:18.265Z,59.76
2023-02-28T05:48:24.567Z,60.13
2023-02-28T05:51:29.329Z,60.20
2023-02-28T05:54:35.979Z,60.31
2023-02-28T05:57:42.228Z,60.16
2023-02-28T06:00:46.873Z,60.35
2023-02-28T06:03:53.345Z,60.60
2023-02-28T06:06:59.757Z,60.43
2023-02-28T06:10:06.238Z,60.27
2023-02-28T06:13:12.745Z,60.32
2023-02-28T06:16:19.022Z,60.69
2023-02-28T06:19:23.893Z,60.91
2023-02-28T06:22:30.242Z,61.23
2023-02-28T06:25:34.833Z,61.11
2023-02-28T06:28:41.233Z,61.24
2023-02-28T06:31:48.032Z,61.28
2023-02-28T06:34:55.130Z,61.64
2023-02-28T06:38:01.322Z,61.63
2023-02-28T06:41:08.246Z,61.61
2023-02-28T06:44:18.493Z,61.68
2023-02-28T06:47:24.838Z,61.78
2023-02-28T06:50:30.714Z,61.91
2023-02-28T06:53:35.349Z,62.17
2023-02-28T06:56:41.972Z,61.73
2023-02-28T06:59:48.304Z,61.15
2023-02-28T07:02:55.035Z,61.31
2023-02-28T07:06:01.319Z,61.64
2023-02-28T07:09:06.382Z,61.78
2023-02-28T07:12:12.755Z,61.72
2023-02-28T07:15:17.208Z,61.64
2023-02-28T07:18:23.416Z,62.22
2023-02-28T07:21:30.351Z,62.71
2023-02-28T07:24:36.718Z,62.83
2023-02-28T07:27:42.893Z,63.49
2023-02-28T07:30:49.369Z,64.00
2023-02-28T07:33:57.483Z,63.98
2023-02-28T07:37:04.895Z,63.86
2023-02-28T07:40:15.314Z,63.72
2023-02-28T07:43:21.531Z,64.08
2023-02-28T07:46:30.658Z,63.15
2023-02-28T07:49:37.374Z,61.14
2023-02-28T07:52:43.896Z,57.65
2023-02-28T07:55:50.350Z,56.59
2023-02-28T07:58:56.722Z,55.61
2023-02-28T08:02:01.453Z,58.63
2023-02-28T08:05:09.371Z,59.98
2023-02-28T08:08:15.811Z,58.82
2023-02-28T08:11:22.023Z,62.35
2023-02-28T08:14:28.382Z,63.06
2023-02-28T08:17:35.346Z,60.76
2023-02-28T08:20:41.763Z,59.05
2023-02-28T08:23:46.682Z,55.53
2023-02-28T08:26:52.957Z,59.34
2023-02-28T08:29:57.601Z,58.06
2023-02-28T08:33:04.108Z,56.28
2023-02-28T08:36:11.502Z,61.07
2023-02-28T08:39:17.667Z,61.82
2023-02-28T08:42:25.146Z,60.30
2023-02-28T08:45:31.654Z,57.54
2023-02-28T08:48:39.711Z,56.57
2023-02-28T08:51:46.054Z,55.79
2023-02-28T08:54:50.864Z,56.43
2023-02-28T08:57:57.204Z,60.70
2023-02-28T09:01:01.810Z,61.49
2023-02-28T09:04:09.704Z,61.45
2023-02-28T09:07:16.054Z,58.83
2023-02-28T09:10:20.646Z,57.50
2023-02-28T09:13:27.245Z,55.41
2023-02-28T09:16:34.811Z,57.58
2023-02-28T09:19:41.359Z,59.29
2023-02-28T09:22:45.871Z,59.70
2023-02-28T09:25:54.265Z,57.96
2023-02-28T09:29:01.113Z,59.35
2023-02-28T09:32:08.051Z,57.06
2023-02-28T09:35:17.464Z,59.60
2023-02-28T09:38:23.733Z,58.58
2023-02-28T09:41:31.596Z,59.86
2023-02-28T09:44:43.791Z,58.28
2023-02-28T09:47:53.690Z,58.69
2023-02-28T09:51:05.237Z,59.05
2023-02-28T09:54:20.037Z,58.55
2023-02-28T09:57:34.348Z,59.38
2023-02-28T10:00:44.309Z,59.10
2023-02-28T10:03:59.428Z,58.20
2023-02-28T10:07:18.698Z,58.43
2023-02-28T10:10:29.256Z,56.99
2023-02-28T10:13:40.559Z,57.15
2023-02-28T10:16:53.023Z,57.12
2023-02-28T10:20:09.072Z,56.51
2023-02-28T10:23:21.634Z,55.60
2023-02-28T10:26:31.401Z,57.36
2023-02-28T10:29:38.108Z,58.60
2023-02-28T10:32:44.684Z,58.04
2023-02-28T10:35:51.283Z,57.74
2023-02-28T10:38:57.515Z,57.41
2023-02-28T10:42:03.753Z,56.93
2023-02-28T10:45:17.856Z,58.56
2023-02-28T10:48:35.968Z,57.97
2023-02-28T10:51:43.462Z,58.08
2023-02-28T10:54:49.727Z,54.35
2023-02-28T10:57:56.410Z,56.85
2023-02-28T11:01:03.199Z,56.06
2023-02-28T11:04:22.973Z,55.66
2023-02-28T11:07:37.340Z,56.40
2023-02-28T11:10:51.200Z,55.73
2023-02-28T11:14:00.802Z,54.21
2023-02-28T11:17:17.111Z,54.53
2023-02-28T11:20:25.586Z,54.55
2023-02-28T11:23:37.765Z,53.99
2023-02-28T11:26:46.960Z,55.89
2023-02-28T11:29:53.474Z,54.33
2023-02-28T11:32:59.975Z,53.52
2023-02-28T11:36:15.090Z,55.19
2023-02-28T11:39:21.845Z,52.34
2023-02-28T11:43:00.888Z,53.03
2023-02-28T11:46:23.152Z,54.50
2023-02-28T11:49:38.784Z,52.78
2023-02-28T11:52:53.966Z,53.58
2023-02-28T11:56:06.408Z,52.39
2023-02-28T11:59:32.019Z,51.60
2023-02-28T12:02:48.310Z,51.41
2023-02-28T12:06:03.389Z,50.79
2023-02-28T12:09:23.355Z,51.62
2023-02-28T12:12:41.131Z,54.70
2023-02-28T12:16:11.284Z,53.75
2023-02-28T12:19:27.078Z,54.07
2023-02-28T12:22:38.314Z,52.73
2023-02-28T12:26:01.342Z,51.23
2023-02-28T12:29:15.116Z,52.57
2023-02-28T12:32:24.759Z,52.32
2023-02-28T12:35:39.257Z,50.16
2023-02-28T12:38:50.002Z,50.79
2023-02-28T12:42:01.423Z,51.61
2023-02-28T12:45:14.123Z,52.60
2023-02-28T12:48:28.289Z,52.52
2023-02-28T12:51:37.293Z,52.24
2023-02-28T12:54:53.076Z,50.33
2023-02-28T12:58:04.072Z,51.00
2023-02-28T13:01:38.056Z,50.47
2023-02-28T13:05:03.696Z,50.98
2023-02-28T13:08:32.007Z,49.77
2023-02-28T13:11:44.917Z,49.17
2023-02-28T13:14:51.989Z,50.62
2023-02-28T13:18:00.498Z,49.23
2023-02-28T13:21:08.406Z,49.66
2023-02-28T13:24:35.856Z,49.36
2023-02-28T13:27:43.845Z,50.98
2023-02-28T13:31:10.175Z,50.12
2023-02-28T13:34:20.380Z,48.97
2023-02-28T13:37:44.463Z,49.18
2023-02-28T13:40:50.745Z,51.47
2023-02-28T13:44:14.235Z,49.67
2023-02-28T13:47:30.804Z,48.45
2023-02-28T13:50:39.728Z,49.09
2023-02-28T13:54:06.447Z,49.69
2023-02-28T13:57:29.813Z,50.64
2023-02-28T14:00:55.561Z,50.40
2023-02-28T14:04:21.949Z,51.02
2023-02-28T14:07:36.242Z,50.73
2023-02-28T14:10:47.717Z,49.46
2023-02-28T14:13:54.069Z,49.43
2023-02-28T14:17:01.701Z,50.86
2023-02-28T14:20:15.965Z,50.72
2023-02-28T14:23:36.974Z,51.74
2023-02-28T14:26:59.296Z,51.65
2023-02-28T14:30:23.320Z,50.67
2023-02-28T14:33:40.441Z,50.44
2023-02-28T14:36:47.272Z,51.50
2023-02-28T14:39:53.797Z,49.72
2023-02-28T14:43:01.937Z,51.03
2023-02-28T14:46:09.967Z,52.11
2023-02-28T14:49:23.114Z,50.50
2023-02-28T14:52:32.864Z,51.30
2023-02-28T14:55:39.571Z,51.71
2023-02-28T14:58:56.032Z,51.92
2023-02-28T15:02:25.928Z,52.68
2023-02-28T15:05:34.388Z,51.00
2023-02-28T15:08:40.917Z,51.43
2023-02-28T15:11:52.104Z,50.91
2023-02-28T15:14:58.431Z,52.13
2023-02-28T15:18:05.908Z,52.05
2023-02-28T15:21:17.881Z,52.46
2023-02-28T15:24:39.219Z,52.69
2023-02-28T15:27:49.354Z,53.11
2023-02-28T15:30:58.395Z,53.43
2023-02-28T15:34:08.967Z,53.85
2023-02-28T15:37:42.567Z,54.57
2023-02-28T15:40:54.888Z,54.89
2023-02-28T15:44:27.843Z,55.21
2023-02-28T15:47:35.010Z,55.24
2023-02-28T15:50:42.045Z,55.67
2023-02-28T15:53:54.375Z,56.29
2023-02-28T15:57:03.633Z,56.35
2023-02-28T16:00:16.340Z,56.57
2023-02-28T16:03:37.444Z,56.73
2023-02-28T16:06:46.099Z,56.59
2023-02-28T16:09:52.332Z,57.06
2023-02-28T16:12:59.592Z,57.21
2023-02-28T16:16:06.294Z,57.28
2023-02-28T16:19:13.038Z,57.38
2023-02-28T16:22:19.285Z,57.56
2023-02-28T16:25:31.362Z,57.72
2023-02-28T16:28:40.803Z,57.85
2023-02-28T16:31:47.008Z,58.21
2023-02-28T16:34:53.273Z,58.34
2023-02-28T16:37:57.842Z,58.30
2023-02-28T16:41:04.086Z,57.89
2023-02-28T16:44:15.562Z,58.50
2023-02-28T16:47:21.842Z,58.57
2023-02-28T16:50:27.084Z,58.82
2023-02-28T16:53:33.319Z,58.52
2023-02-28T16:56:41.648Z,59.07
2023-02-28T16:59:48.037Z,59.11
2023-02-28T17:02:53.170Z,59.26
2023-02-28T17:05:59.538Z,59.00
2023-02-28T17:09:04.094Z,59.33
2023-02-28T17:12:12.135Z,58.94
2023-02-28T17:15:20.448Z,59.77
2023-02-28T17:18:27.674Z,60.36
2023-02-28T17:21:35.169Z,60.65
2023-02-28T17:24:41.448Z,61.31
2023-02-28T17:27:46.405Z,61.60
2023-02-28T17:30:53.027Z,61.31
2023-02-28T17:33:59.272Z,62.02
2023-02-28T17:37:05.555Z,61.98
2023-02-28T17:40:15.115Z,63.08
2023-02-28T17:43:21.459Z,66.55
2023-02-28T17:46:26.768Z,65.64
2023-02-28T17:49:34.210Z,65.67
2023-02-28T17:52:40.499Z,63.93
2023-02-28T17:55:45.037Z,62.65
2023-02-28T17:58:51.760Z,62.17
2023-02-28T18:01:58.052Z,61.34
2023-02-28T18:05:05.262Z,61.10
2023-02-28T18:08:14.126Z,61.00
2023-02-28T18:11:20.530Z,59.57
2023-02-28T18:14:26.487Z,57.83
2023-02-28T18:17:32.797Z,57.48
2023-02-28T18:20:37.522Z,58.36
2023-02-28T18:23:48.518Z,58.67
2023-02-28T18:26:54.842Z,59.69
2023-02-28T18:30:01.097Z,60.66
2023-02-28T18:33:07.500Z,61.43
2023-02-28T18:36:16.330Z,61.93
2023-02-28T18:39:22.830Z,63.62
2023-02-28T18:42:29.065Z,65.54
2023-02-28T18:45:36.291Z,65.47
2023-02-28T18:48:42.898Z,65.66
2023-02-28T18:51:49.260Z,65.08
2023-02-28T18:54:53.799Z,64.49
2023-02-28T18:58:00.029Z,64.12
2023-02-28T19:01:15.520Z,62.75
2023-02-28T19:04:21.807Z,62.43
2023-02-28T19:07:26.352Z,62.22
2023-02-28T19:10:32.922Z,61.94
2023-02-28T19:13:39.331Z,61.38
2023-02-28T19:16:47.313Z,61.13
2023-02-28T19:19:53.694Z,60.34
2023-02-28T19:22:59.878Z,60.11
2023-02-28T19:26:10.803Z,60.45
2023-02-28T19:29:17.173Z,60.39
2023-02-28T19:32:22.101Z,60.22
2023-02-28T19:35:28.463Z,60.25
2023-02-28T19:38:33.072Z,59.93
2023-02-28T19:41:39.332Z,60.53
2023-02-28T19:44:46.357Z,59.76
2023-02-28T19:47:52.682Z,58.23
2023-02-28T19:50:59.689Z,57.95
2023-02-28T19:54:06.657Z,58.68
2023-02-28T19:57:12.931Z,59.77
2023-02-28T20:00:19.072Z,60.89
2023-02-28T20:03:25.732Z,60.95
2023-02-28T20:06:34.437Z,64.07
2023-02-28T20:09:40.650Z,66.63
2023-02-28T20:12:46.926Z,66.27
2023-02-28T20:15:51.461Z,65.60
2023-02-28T20:18:57.953Z,65.37
2023-02-28T20:22:04.132Z,64.44
2023-02-28T20:25:12.265Z,63.96
2023-02-28T20:28:19.195Z,63.29
2023-02-28T20:31:27.080Z,62.77
2023-02-28T20:34:33.377Z,62.55
2023-02-28T20:37:37.874Z,61.95
2023-02-28T20:40:44.172Z,61.64
2023-02-28T20:43:48.926Z,62.39
2023-02-28T20:46:55.085Z,62.30
2023-02-28T20:50:01.329Z,62.13
2023-02-28T20:53:05.961Z,62.17
2023-02-28T20:56:16.193Z,62.26
2023-02-28T20:59:22.515Z,61.95
2023-02-28T21:02:26.996Z,61.39
2023-02-28T21:05:33.230Z,60.93
2023-02-28T21:08:40.904Z,60.17
2023-02-28T21:11:47.515Z,59.88
2023-02-28T21:14:54.248Z,60.03
2023-02-28T21:18:00.501Z,59.93
2023-02-28T21:21:08.612Z,59.61
2023-02-28T21:24:15.695Z,59.48
2023-02-28T21:27:21.906Z,58.18
2023-02-28T21:30:28.429Z,58.31
2023-02-28T21:33:36.002Z,59.42
2023-02-28T21:36:45.776Z,60.62
2023-02-28T21:39:52.113Z,61.89
2023-02-28T21:42:58.413Z,64.55
2023-02-28T21:46:06.790Z,66.58
2023-02-28T21:49:13.176Z,67.31
2023-02-28T21:52:24.992Z,66.43
2023-02-28T21:55:31.284Z,65.47
2023-02-28T21:58:35.732Z,64.75
2023-02-28T22:01:44.234Z,65.24
2023-02-28T22:04:50.780Z,65.26
2023-02-28T22:07:57.032Z,64.99
2023-02-28T22:11:06.767Z,65.03
2023-02-28T22:14:12.986Z,64.78
2023-02-28T22:17:19.162Z,63.66
2023-02-28T22:20:25.428Z,62.76
2023-02-28T22:23:29.845Z,62.27
2023-02-28T22:26:36.514Z,61.80
2023-02-28T22:29:43.049Z,61.36
2023-02-28T22:32:49.820Z,61.02
2023-02-28T22:35:56.107Z,60.98
2023-02-28T22:39:01.553Z,61.01
2023-02-28T22:42:07.917Z,61.31
2023-02-28T22:45:14.906Z,61.21
2023-02-28T22:48:21.479Z,60.80
2023-02-28T22:51:28.634Z,60.27
2023-02-28T22:54:34.452Z,60.16
2023-02-28T22:57:40.897Z,59.98
2023-02-28T23:00:47.300Z,59.78
2023-02-28T23:03:54.317Z,59.70
2023-02-28T23:07:00.715Z,59.93
2023-02-28T23:10:12.837Z,60.43
2023-02-28T23:13:20.291Z,60.51
2023-02-28T23:16:27.849Z,60.10
2023-02-28T23:19:34.288Z,59.76
2023-02-28T23:22:40.779Z,58.52
2023-02-28T23:25:47.301Z,58.26
2023-02-28T23:28:53.719Z,60.30
2023-02-28T23:32:00.342Z,61.83
2023-02-28T23:35:08.660Z,65.34
2023-02-28T23:38:14.910Z,67.08
2023-02-28T23:41:20.298Z,67.11
2023-02-28T23:44:26.736Z,66.94
2023-02-28T23:47:33.421Z,67.29
2023-02-28T23:50:40.534Z,67.20
2023-02-28T23:53:48.823Z,66.51
2023-02-28T23:56:55.378Z,65.22
